Time;durP1;ratioP1;P1;durP2;ratioP2;P2;SDS_P1;SDS_P2;PMS_P1;PMS_P2;Temp;Humidity;BMP_temperature;BMP_pressure;BME280_temperature;BME280_humidity;BME280_pressure;Samples;Min_cycle;Max_cycle;Signal;HPM_P1;HPM_P2
2022/05/04 00:00:06;;;;;;;;;;;;;;;;;;4918993;29;19919;-80
2022/05/04 00:02:31;;;;;;;;;;;;;;;;;;4918802;29;19926;-84
2022/05/04 00:04:57;;;;;;;;;;;;;;;;;;4919250;29;19919;-80
2022/05/04 00:07:22;;;;;;;;;;;;;;;;;;4918511;29;19926;-87
2022/05/04 00:09:48;;;;;;;;;;;;;;;;;;4917560;29;20022;-87
2022/05/04 00:12:14;;;;;;;;;;;;;;;;;;4917699;29;19986;-84
2022/05/04 00:14:39;;;;;;;;;;;;;;;;;;4917797;29;20346;-81
2022/05/04 00:17:05;;;;;;;;;;;;;;;;;;4917830;29;19919;-86
2022/05/04 00:19:30;;;;;;;;;;;;;;;;;;4918005;29;20371;-82
2022/05/04 00:21:56;;;;;;;;;;;;;;;;;;4919301;29;20356;-90
2022/05/04 00:24:21;;;;;;;;;;;;;;;;;;4919844;29;19922;-84
2022/05/04 00:26:47;;;;;;;;;;;;;;;;;;4918129;29;19923;-85
2022/05/04 00:29:12;;;;;;;;;;;;;;;;;;4918736;29;19919;-82
2022/05/04 00:31:38;;;;;;;;;;;;;;;;;;4918035;29;19915;-90
2022/05/04 00:34:03;;;;;;;;;;;;;;;;;;4918865;29;20279;-89
2022/05/04 00:36:29;;;;;;;;;;;;;;;;;;4918938;29;19915;-88
2022/05/04 00:38:54;;;;;;;;;;;;;;;;;;4919071;29;19919;-85
2022/05/04 00:41:20;;;;;;;;;;;;;;;;;;4918411;29;20371;-84
2022/05/04 00:43:52;;;;;;;;;;;;;;;;;;4925897;29;19929;-83
2022/05/04 00:46:18;;;;;;;;;;;;;;;;;;4926662;29;19930;-81
2022/05/04 00:48:43;;;;;;;;;;;;;;;;;;4927793;29;19923;-81
2022/05/04 00:51:09;;;;;;;;;;;;;;;;;;4935247;29;19903;-81
2022/05/04 00:53:34;;;;;;;;;;;;;;;;;;4940268;29;19913;-81
2022/05/04 00:56:00;;;;;;;;;;;;;;;;;;4941498;29;19939;-82
2022/05/04 01:01:09;;;;;;;;;;;;;;;;;;4918286;29;19926;-89
2022/05/04 01:03:37;;;;;;;;;;;;;;;;;;4917847;29;19923;-83
2022/05/04 01:06:02;;;;;;;;;;;;;;;;;;4917481;29;19924;-81
2022/05/04 01:08:28;;;;;;;;;;;;;;;;;;4915686;29;19942;-81
2022/05/04 01:10:53;;;;;;;;;;;;;;;;;;4916779;29;20307;-89
2022/05/04 01:13:20;;;;;;;;;;;;;;;;;;4916915;29;19919;-81
2022/05/04 01:15:46;;;;;;;;;;;;;;;;;;4918138;29;20295;-83
2022/05/04 01:18:11;;;;;;;;;;;;;;;;;;4918285;29;19941;-91
2022/05/04 01:20:36;;;;;;;;;;;;;;;;;;4917782;29;19919;-80
2022/05/04 01:23:02;;;;;;;;;;;;;;;;;;4917652;29;19919;-81
2022/05/04 01:25:27;;;;;;;;;;;;;;;;;;4918136;29;19919;-83
2022/05/04 01:27:53;;;;;;;;;;;;;;;;;;4916432;29;20390;-81
2022/05/04 01:30:18;;;;;;;;;;;;;;;;;;4916653;29;19926;-82
2022/05/04 01:32:44;;;;;;;;;;;;;;;;;;4916419;29;19922;-80
2022/05/04 01:35:09;;;;;;;;;;;;;;;;;;4917558;29;19919;-83
2022/05/04 01:37:35;;;;;;;;;;;;;;;;;;4916441;29;19967;-80
2022/05/04 01:40:00;;;;;;;;;;;;;;;;;;4916168;29;20371;-80
2022/05/04 01:42:25;;;;;;;;;;;;;;;;;;4915983;29;19927;-85
2022/05/04 01:44:51;;;;;;;;;;;;;;;;;;4916283;29;19930;-81
2022/05/04 01:47:17;;;;;;;;;;;;;;;;;;4916063;29;19925;-87
2022/05/04 01:49:42;;;;;;;;;;;;;;;;;;4917364;29;20387;-86
2022/05/04 01:52:08;;;;;;;;;;;;;;;;;;4916147;29;20013;-87
2022/05/04 01:54:33;;;;;;;;;;;;;;;;;;4917351;29;19923;-82
2022/05/04 01:56:59;;;;;;;;;;;;;;;;;;4916123;29;19919;-83
2022/05/04 01:59:24;;;;;;;;;;;;;;;;;;4917190;29;19927;-87
2022/05/04 02:01:50;;;;;;;;;;;;;;;;;;4916076;29;19923;-89
2022/05/04 02:04:16;;;;;;;;;;;;;;;;;;4916158;29;20362;-87
2022/05/04 02:06:41;;;;;;;;;;;;;;;;;;4917146;29;19927;-82
2022/05/04 02:09:07;;;;;;;;;;;;;;;;;;4917204;29;19919;-89
2022/05/04 02:11:33;;;;;;;;;;;;;;;;;;4917365;29;20276;-84
2022/05/04 02:13:59;;;;;;;;;;;;;;;;;;4917244;29;19919;-85
2022/05/04 02:16:25;;;;;;;;;;;;;;;;;;4917064;29;20294;-85
2022/05/04 02:18:51;;;;;;;;;;;;;;;;;;4919089;29;20006;-88
2022/05/04 02:21:16;;;;;;;;;;;;;;;;;;4919366;29;19919;-82
2022/05/04 02:23:42;;;;;;;;;;;;;;;;;;4920628;29;19958;-81
2022/05/04 02:26:07;;;;;;;;;;;;;;;;;;4921006;29;19926;-84
2022/05/04 02:28:33;;;;;;;;;;;;;;;;;;4920552;29;19919;-81
2022/05/04 02:30:59;;;;;;;;;;;;;;;;;;4921126;29;19919;-82
2022/05/04 02:33:24;;;;;;;;;;;;;;;;;;4920607;29;19938;-81
2022/05/04 02:38:33;;;;;;;;;;;;;;;;;;4920823;29;20011;-85
2022/05/04 02:40:59;;;;;;;;;;;;;;;;;;4920539;29;20439;-87
2022/05/04 02:43:26;;;;;;;;;;;;;;;;;;4920526;29;20043;-88
2022/05/04 02:45:52;;;;;;;;;;;;;;;;;;4920422;29;20384;-84
2022/05/04 02:48:17;;;;;;;;;;;;;;;;;;4919866;29;19925;-83
2022/05/04 02:50:43;;;;;;;;;;;;;;;;;;4920541;29;19925;-88
2022/05/04 02:53:09;;;;;;;;;;;;;;;;;;4920164;29;19969;-84
2022/05/04 02:55:34;;;;;;;;;;;;;;;;;;4920190;29;20368;-84
2022/05/04 02:58:00;;;;;;;;;;;;;;;;;;4920007;29;19919;-81
2022/05/04 03:00:26;;;;;;;;;;;;;;;;;;4922354;29;20340;-88
2022/05/04 03:02:51;;;;;;;;;;;;;;;;;;4919955;29;20006;-85
2022/05/04 03:05:18;;;;;;;;;;;;;;;;;;4919752;29;20331;-81
2022/05/04 03:07:43;;;;;;;;;;;;;;;;;;4924241;29;19969;-87
2022/05/04 03:10:09;;;;;;;;;;;;;;;;;;4939288;29;19950;-88
2022/05/04 03:12:34;;;;;;;;;;;;;;;;;;4936313;29;20387;-83
2022/05/04 03:15:00;;;;;;;;;;;;;;;;;;4920819;29;19927;-83
2022/05/04 03:17:25;;;;;;;;;;;;;;;;;;4918220;29;20376;-87
2022/05/04 03:19:52;;;;;;;;;;;;;;;;;;4917030;29;20134;-87
2022/05/04 03:22:17;;;;;;;;;;;;;;;;;;4914404;29;19986;-84
2022/05/04 03:24:43;;;;;;;;;;;;;;;;;;4916977;29;20346;-83
2022/05/04 03:27:08;;;;;;;;;;;;;;;;;;4918608;29;19919;-90
2022/05/04 03:29:34;;;;;;;;;;;;;;;;;;4917214;29;20376;-82
2022/05/04 03:32:00;;;;;;;;;;;;;;;;;;4921294;29;21299;-89
2022/05/04 03:34:25;;;;;;;;;;;;;;;;;;4925604;29;19926;-85
2022/05/04 03:36:51;;;;;;;;;;;;;;;;;;4927545;29;19926;-89
2022/05/04 03:39:17;;;;;;;;;;;;;;;;;;4929382;29;20006;-82
2022/05/04 03:41:42;;;;;;;;;;;;;;;;;;4927024;29;19919;-86
2022/05/04 03:44:08;;;;;;;;;;;;;;;;;;4922341;29;20006;-88
2022/05/04 03:46:46;;;;;;;;;;;;;;;;;;4919596;29;19941;-83
2022/05/04 03:49:13;;;;;;;;;;;;;;;;;;4918847;29;20375;-82
2022/05/04 03:51:38;;;;;;;;;;;;;;;;;;4913074;29;19927;-82
2022/05/04 03:54:04;;;;;;;;;;;;;;;;;;4919344;29;20423;-91
2022/05/04 03:56:29;;;;;;;;;;;;;;;;;;4918802;29;20391;-86
2022/05/04 03:58:55;;;;;;;;;;;;;;;;;;4918450;29;19919;-80
2022/05/04 04:01:20;;;;;;;;;;;;;;;;;;4911203;29;19983;-86
2022/05/04 04:03:46;;;;;;;;;;;;;;;;;;4914612;29;20364;-82
2022/05/04 04:06:12;;;;;;;;;;;;;;;;;;4913506;29;20014;-85
2022/05/04 04:08:37;;;;;;;;;;;;;;;;;;4914445;29;19926;-88
2022/05/04 04:11:03;;;;;;;;;;;;;;;;;;4912544;29;19999;-88
2022/05/04 04:13:29;;;;;;;;;;;;;;;;;;4927699;29;19919;-88
2022/05/04 04:15:55;;;;;;;;;;;;;;;;;;4910771;29;19927;-81
2022/05/04 04:18:21;;;;;;;;;;;;;;;;;;4913626;29;19919;-82
2022/05/04 04:23:30;;;;;;;;;;;;;;;;;;4913951;29;19926;-89
2022/05/04 04:25:56;;;;;;;;;;;;;;;;;;4914030;29;19926;-81
2022/05/04 04:28:21;;;;;;;;;;;;;;;;;;4904931;29;19978;-85
2022/05/04 04:30:47;;;;;;;;;;;;;;;;;;4900157;29;19958;-81
2022/05/04 04:33:12;;;;;;;;;;;;;;;;;;4898687;29;20291;-81
2022/05/04 04:35:38;;;;;;;;;;;;;;;;;;4904980;29;20398;-82
2022/05/04 04:38:03;;;;;;;;;;;;;;;;;;4917983;29;19926;-81
2022/05/04 04:40:29;;;;;;;;;;;;;;;;;;4917941;29;19925;-89
2022/05/04 04:42:55;;;;;;;;;;;;;;;;;;4916507;29;19971;-81
2022/05/04 04:45:21;;;;;;;;;;;;;;;;;;4916621;29;20402;-87
2022/05/04 04:47:47;;;;;;;;;;;;;;;;;;4917756;29;19919;-81
2022/05/04 04:50:12;;;;;;;;;;;;;;;;;;4917415;29;19978;-80
2022/05/04 04:52:38;;;;;;;;;;;;;;;;;;4917708;29;19920;-80
2022/05/04 04:55:04;;;;;;;;;;;;;;;;;;4917712;29;19999;-80
2022/05/04 04:57:29;;;;;;;;;;;;;;;;;;4917850;29;19975;-91
2022/05/04 04:59:55;;;;;;;;;;;;;;;;;;4917908;29;19919;-85
2022/05/04 05:02:20;;;;;;;;;;;;;;;;;;4917760;29;20363;-80
2022/05/04 05:04:45;;;;;;;;;;;;;;;;;;4917560;29;20040;-80
2022/05/04 05:07:11;;;;;;;;;;;;;;;;;;4917459;29;20025;-81
2022/05/04 05:09:36;;;;;;;;;;;;;;;;;;4917211;29;19923;-80
2022/05/04 05:12:02;;;;;;;;;;;;;;;;;;4917688;29;19919;-79
2022/05/04 05:17:11;;;;;;;;;;;;;;;;;;4917991;29;19962;-78
2022/05/04 05:19:36;;;;;;;;;;;;;;;;;;4916999;29;19919;-78
2022/05/04 05:22:02;;;;;;;;;;;;;;;;;;4915718;29;19923;-81
2022/05/04 05:24:27;;;;;;;;;;;;;;;;;;4916000;29;19926;-81
2022/05/04 05:26:53;;;;;;;;;;;;;;;;;;4917349;29;19927;-81
2022/05/04 05:29:18;;;;;;;;;;;;;;;;;;4917141;29;19927;-79
2022/05/04 05:31:44;;;;;;;;;;;;;;;;;;4917439;29;19919;-80
2022/05/04 05:34:09;;;;;;;;;;;;;;;;;;4917360;29;19919;-79
2022/05/04 05:36:34;;;;;;;;;;;;;;;;;;4917232;29;20340;-81
2022/05/04 05:39:00;;;;;;;;;;;;;;;;;;4917262;29;20055;-79
2022/05/04 05:41:25;;;;;;;;;;;;;;;;;;4917338;29;19919;-80
2022/05/04 05:43:52;;;;;;;;;;;;;;;;;;4915791;29;19928;-90
2022/05/04 05:46:17;;;;;;;;;;;;;;;;;;4917290;29;20376;-87
2022/05/04 05:48:43;;;;;;;;;;;;;;;;;;4917161;29;19923;-86
2022/05/04 05:51:08;;;;;;;;;;;;;;;;;;4916967;29;20359;-80
2022/05/04 05:53:34;;;;;;;;;;;;;;;;;;4918766;29;19923;-79
2022/05/04 05:55:59;;;;;;;;;;;;;;;;;;4920715;29;19966;-79
2022/05/04 05:58:25;;;;;;;;;;;;;;;;;;4920004;29;19923;-91
2022/05/04 06:00:51;;;;;;;;;;;;;;;;;;4916372;29;20287;-92
2022/05/04 06:03:17;;;;;;;;;;;;;;;;;;4919492;29;19926;-79
2022/05/04 06:05:42;;;;;;;;;;;;;;;;;;4920406;29;19919;-79
2022/05/04 06:08:09;;;;;;;;;;;;;;;;;;4920472;29;20360;-77
2022/05/04 06:10:38;;;;;;;;;;;;;;;;;;4919005;29;19975;-78
2022/05/04 06:13:04;;;;;;;;;;;;;;;;;;4920336;29;19919;-77
2022/05/04 06:15:29;;;;;;;;;;;;;;;;;;4920314;29;19919;-77
2022/05/04 06:17:55;;;;;;;;;;;;;;;;;;4920279;29;19925;-78
2022/05/04 06:20:22;;;;;;;;;;;;;;;;;;4925269;29;20317;-88
2022/05/04 06:22:47;;;;;;;;;;;;;;;;;;4930048;29;19983;-77
2022/05/04 06:25:13;;;;;;;;;;;;;;;;;;4926487;29;19910;-79
2022/05/04 06:27:38;;;;;;;;;;;;;;;;;;4929951;29;19964;-77
2022/05/04 06:35:31;;;;;;;;;;;;;;;;;;4924295;29;19925;-83
2022/05/04 06:37:57;;;;;;;;;;;;;;;;;;4921202;29;20338;-80
2022/05/04 06:40:22;;;;;;;;;;;;;;;;;;4919867;29;20394;-80
2022/05/04 06:42:48;;;;;;;;;;;;;;;;;;4918681;29;19923;-83
2022/05/04 06:45:13;;;;;;;;;;;;;;;;;;4919915;29;19926;-79
2022/05/04 06:47:39;;;;;;;;;;;;;;;;;;4920416;29;19919;-81
2022/05/04 06:50:04;;;;;;;;;;;;;;;;;;4916028;29;20391;-90
2022/05/04 06:52:31;;;;;;;;;;;;;;;;;;4918277;29;19919;-81
2022/05/04 06:54:56;;;;;;;;;;;;;;;;;;4914818;29;19923;-88
2022/05/04 06:57:21;;;;;;;;;;;;;;;;;;4915914;29;20280;-88
2022/05/04 06:59:47;;;;;;;;;;;;;;;;;;4918883;29;20304;-78
2022/05/04 07:02:12;;;;;;;;;;;;;;;;;;4918175;29;19930;-85
2022/05/04 07:04:38;;;;;;;;;;;;;;;;;;4919582;29;19926;-82
2022/05/04 07:07:04;;;;;;;;;;;;;;;;;;4909419;29;19926;-84
2022/05/04 07:09:29;;;;;;;;;;;;;;;;;;4915138;29;19942;-87
2022/05/04 07:11:55;;;;;;;;;;;;;;;;;;4900543;29;19927;-80
2022/05/04 07:14:20;;;;;;;;;;;;;;;;;;4899331;29;19919;-82
2022/05/04 07:16:46;;;;;;;;;;;;;;;;;;4900702;29;19920;-80
2022/05/04 07:19:12;;;;;;;;;;;;;;;;;;4901013;29;19971;-83
2022/05/04 07:21:38;;;;;;;;;;;;;;;;;;4900486;29;20365;-87
2022/05/04 07:24:03;;;;;;;;;;;;;;;;;;4900532;29;19920;-80
2022/05/04 07:26:29;;;;;;;;;;;;;;;;;;4900368;29;20326;-84
2022/05/04 07:28:54;;;;;;;;;;;;;;;;;;4900273;29;19919;-81
2022/05/04 07:31:19;;;;;;;;;;;;;;;;;;4900204;29;19920;-86
2022/05/04 07:33:45;;;;;;;;;;;;;;;;;;4900438;29;19920;-84
2022/05/04 07:36:10;;;;;;;;;;;;;;;;;;4900185;29;20391;-83
2022/05/04 07:38:36;;;;;;;;;;;;;;;;;;4900302;29;19970;-82
2022/05/04 07:43:46;;;;;;;;;;;;;;;;;;4900117;29;19978;-81
2022/05/04 07:46:12;;;;;;;;;;;;;;;;;;4900420;29;19923;-81
2022/05/04 07:48:37;;;;;;;;;;;;;;;;;;4900005;29;19927;-83
2022/05/04 07:51:02;;;;;;;;;;;;;;;;;;4900188;29;19919;-80
2022/05/04 07:53:28;;;;;;;;;;;;;;;;;;4900257;29;19967;-86
2022/05/04 07:55:54;;;;;;;;;;;;;;;;;;4898798;29;20324;-79
2022/05/04 07:58:19;;;;;;;;;;;;;;;;;;4901455;29;20014;-90
2022/05/04 08:06:13;;;;;;;;;;;;;;;;;;4899632;29;19930;-79
2022/05/04 08:08:38;;;;;;;;;;;;;;;;;;4899650;29;20014;-79
2022/05/04 08:11:04;;;;;;;;;;;;;;;;;;4899130;29;19919;-80
2022/05/04 08:13:29;;;;;;;;;;;;;;;;;;4899408;29;20396;-79
2022/05/04 08:15:55;;;;;;;;;;;;;;;;;;4899011;29;19927;-80
2022/05/04 08:18:20;;;;;;;;;;;;;;;;;;4899353;29;19990;-79
2022/05/04 08:20:46;;;;;;;;;;;;;;;;;;4899210;29;19983;-84
2022/05/04 08:23:12;;;;;;;;;;;;;;;;;;4899125;29;20360;-79
2022/05/04 08:25:38;;;;;;;;;;;;;;;;;;4899172;29;20314;-80
2022/05/04 08:28:04;;;;;;;;;;;;;;;;;;4900680;29;19977;-83
2022/05/04 08:30:29;;;;;;;;;;;;;;;;;;4904037;29;20280;-82
2022/05/04 08:32:55;;;;;;;;;;;;;;;;;;4911328;29;19931;-88
2022/05/04 08:35:20;;;;;;;;;;;;;;;;;;4907205;29;19998;-83
2022/05/04 08:37:46;;;;;;;;;;;;;;;;;;4876860;29;19919;-81
2022/05/04 08:40:12;;;;;;;;;;;;;;;;;;4917038;29;19919;-80
2022/05/04 08:42:39;;;;;;;;;;;;;;;;;;4910781;29;19923;-90
2022/05/04 08:45:06;;;;;;;;;;;;;;;;;;4916962;29;19927;-80
2022/05/04 08:47:32;;;;;;;;;;;;;;;;;;4917197;29;19920;-80
2022/05/04 08:49:57;;;;;;;;;;;;;;;;;;4912135;29;20002;-82
2022/05/04 08:52:23;;;;;;;;;;;;;;;;;;4911517;29;20279;-87
2022/05/04 08:54:49;;;;;;;;;;;;;;;;;;4914028;29;19970;-84
2022/05/04 08:57:14;;;;;;;;;;;;;;;;;;4915033;29;19931;-78
2022/05/04 08:59:41;;;;;;;;;;;;;;;;;;4914430;29;19933;-78
2022/05/04 09:02:07;;;;;;;;;;;;;;;;;;4908580;29;20025;-80
2022/05/04 09:04:33;;;;;;;;;;;;;;;;;;4911595;29;20383;-79
2022/05/04 09:07:01;;;;;;;;;;;;;;;;;;4905340;29;20010;-81
2022/05/04 09:09:27;;;;;;;;;;;;;;;;;;4902927;29;20029;-87
2022/05/04 09:11:52;;;;;;;;;;;;;;;;;;4915808;29;20450;-80
2022/05/04 09:14:20;;;;;;;;;;;;;;;;;;4915078;29;19919;-80
2022/05/04 09:16:46;;;;;;;;;;;;;;;;;;4915666;29;20407;-82
2022/05/04 09:19:17;;;;;;;;;;;;;;;;;;4915185;29;19919;-77
2022/05/04 09:21:52;;;;;;;;;;;;;;;;;;4905664;29;19923;-79
2022/05/04 09:24:36;;;;;;;;;;;;;;;;;;4896346;29;19971;-78
2022/05/04 09:27:04;;;;;;;;;;;;;;;;;;4898947;29;20392;-83
2022/05/04 09:29:36;;;;;;;;;;;;;;;;;;4899798;29;19926;-79
2022/05/04 09:32:11;;;;;;;;;;;;;;;;;;4906281;29;20052;-78
2022/05/04 09:34:37;;;;;;;;;;;;;;;;;;4920529;29;19923;-82
2022/05/04 09:45:33;;;;;;;;;;;;;;;;;;4901600;29;19997;-86
2022/05/04 09:47:58;;;;;;;;;;;;;;;;;;4901291;29;19924;-77
2022/05/04 09:50:26;;;;;;;;;;;;;;;;;;4901520;29;19926;-77
2022/05/04 09:52:53;;;;;;;;;;;;;;;;;;4901126;29;20006;-78
2022/05/04 09:55:20;;;;;;;;;;;;;;;;;;4900081;29;19924;-78
2022/05/04 09:57:46;;;;;;;;;;;;;;;;;;4901308;29;19923;-78
2022/05/04 10:00:13;;;;;;;;;;;;;;;;;;4901201;29;19924;-79
2022/05/04 10:02:39;;;;;;;;;;;;;;;;;;4901026;29;19935;-78
2022/05/04 10:05:04;;;;;;;;;;;;;;;;;;4901255;29;19919;-78
2022/05/04 10:07:31;;;;;;;;;;;;;;;;;;4900922;29;19919;-78
2022/05/04 10:09:56;;;;;;;;;;;;;;;;;;4901175;29;19919;-78
2022/05/04 10:12:23;;;;;;;;;;;;;;;;;;4901020;29;19923;-78
2022/05/04 10:14:49;;;;;;;;;;;;;;;;;;4900849;29;20269;-78
2022/05/04 10:17:18;;;;;;;;;;;;;;;;;;4899590;29;19923;-79
2022/05/04 10:19:50;;;;;;;;;;;;;;;;;;4900784;29;20014;-79
2022/05/04 10:22:17;;;;;;;;;;;;;;;;;;4900683;29;20018;-78
2022/05/04 10:24:44;;;;;;;;;;;;;;;;;;4900644;29;20013;-79
2022/05/04 10:27:22;;;;;;;;;;;;;;;;;;4900598;29;19923;-78
2022/05/04 10:32:35;;;;;;;;;;;;;;;;;;4900844;29;19998;-78
2022/05/04 10:35:20;;;;;;;;;;;;;;;;;;4901636;29;19926;-78
2022/05/04 10:37:53;;;;;;;;;;;;;;;;;;4919289;29;19982;-78
2022/05/04 10:40:27;;;;;;;;;;;;;;;;;;4918963;29;19923;-78
2022/05/04 10:42:57;;;;;;;;;;;;;;;;;;4918981;29;19930;-78
2022/05/04 10:45:32;;;;;;;;;;;;;;;;;;4919201;29;19973;-83
2022/05/04 10:48:14;;;;;;;;;;;;;;;;;;4917909;29;19920;-78
2022/05/04 10:50:52;;;;;;;;;;;;;;;;;;4919145;29;19919;-78
2022/05/04 10:53:38;;;;;;;;;;;;;;;;;;4919006;29;20376;-78
2022/05/04 10:56:07;;;;;;;;;;;;;;;;;;4918797;29;19976;-80
2022/05/04 11:15:37;;;;;;;;;;;;;;;;;;4921006;29;19967;-78
2022/05/04 11:18:07;;;;;;;;;;;;;;;;;;4915153;29;19923;-80
2022/05/04 11:20:32;;;;;;;;;;;;;;;;;;4900407;29;20295;-80
2022/05/04 11:22:58;;;;;;;;;;;;;;;;;;4898889;29;20002;-87
2022/05/04 11:25:24;;;;;;;;;;;;;;;;;;4899771;29;19920;-80
2022/05/04 11:27:50;;;;;;;;;;;;;;;;;;4899813;29;19951;-81
2022/05/04 11:30:16;;;;;;;;;;;;;;;;;;4899802;29;19923;-78
2022/05/04 11:32:43;;;;;;;;;;;;;;;;;;4914063;29;19968;-78
2022/05/04 11:35:17;;;;;;;;;;;;;;;;;;4899515;29;19919;-78
2022/05/04 11:37:43;;;;;;;;;;;;;;;;;;4899741;29;20379;-78
2022/05/04 11:40:09;;;;;;;;;;;;;;;;;;4899647;29;19975;-79
2022/05/04 11:42:34;;;;;;;;;;;;;;;;;;4913830;29;19924;-80
2022/05/04 11:45:00;;;;;;;;;;;;;;;;;;4899355;29;20010;-80
2022/05/04 11:47:25;;;;;;;;;;;;;;;;;;4899474;29;19955;-79
2022/05/04 11:49:53;;;;;;;;;;;;;;;;;;4898199;29;20010;-79
2022/05/04 11:52:19;;;;;;;;;;;;;;;;;;4898626;29;19919;-79
2022/05/04 11:54:45;;;;;;;;;;;;;;;;;;4897835;29;20393;-79
2022/05/04 11:57:12;;;;;;;;;;;;;;;;;;4899653;29;19919;-81
2022/05/04 11:59:37;;;;;;;;;;;;;;;;;;4900565;29;19923;-79
2022/05/04 12:02:03;;;;;;;;;;;;;;;;;;4901565;29;19927;-79
2022/05/04 12:04:29;;;;;;;;;;;;;;;;;;4902032;29;19927;-80
2022/05/04 12:06:56;;;;;;;;;;;;;;;;;;4910077;29;19950;-77
2022/05/04 12:09:21;;;;;;;;;;;;;;;;;;4918965;29;19952;-78
2022/05/04 12:11:47;;;;;;;;;;;;;;;;;;4918872;29;20018;-78
2022/05/04 12:14:15;;;;;;;;;;;;;;;;;;4907595;29;20407;-79
2022/05/04 12:16:42;;;;;;;;;;;;;;;;;;4899183;29;19920;-80
2022/05/04 12:19:08;;;;;;;;;;;;;;;;;;4898984;29;19975;-92
2022/05/04 12:21:33;;;;;;;;;;;;;;;;;;4899154;29;19928;-87
2022/05/04 12:24:00;;;;;;;;;;;;;;;;;;4899588;29;20058;-80
2022/05/04 12:26:25;;;;;;;;;;;;;;;;;;4898802;29;20014;-80
2022/05/04 12:34:23;;;;;;;;;;;;;;;;;;4898651;29;19930;-81
2022/05/04 12:36:50;;;;;;;;;;;;;;;;;;4899201;29;20022;-79
2022/05/04 12:39:15;;;;;;;;;;;;;;;;;;4912928;29;19919;-84
2022/05/04 12:41:43;;;;;;;;;;;;;;;;;;4898029;29;19926;-81
2022/05/04 12:44:09;;;;;;;;;;;;;;;;;;4898253;29;20275;-80
2022/05/04 12:46:34;;;;;;;;;;;;;;;;;;4898129;29;19923;-80
2022/05/04 12:49:00;;;;;;;;;;;;;;;;;;4898233;29;20332;-90
2022/05/04 12:51:28;;;;;;;;;;;;;;;;;;4897523;29;20463;-88
2022/05/04 12:53:54;;;;;;;;;;;;;;;;;;4898101;29;19919;-80
2022/05/04 12:59:04;;;;;;;;;;;;;;;;;;4898155;29;20032;-80
2022/05/04 13:01:31;;;;;;;;;;;;;;;;;;4898034;29;19920;-79
2022/05/04 13:03:57;;;;;;;;;;;;;;;;;;4898312;29;19930;-80
2022/05/04 13:06:23;;;;;;;;;;;;;;;;;;4912564;29;20014;-81
2022/05/04 13:08:48;;;;;;;;;;;;;;;;;;4915483;29;20030;-79
2022/05/04 13:11:14;;;;;;;;;;;;;;;;;;4916797;29;19920;-78
2022/05/04 13:13:40;;;;;;;;;;;;;;;;;;4916784;29;19926;-79
2022/05/04 13:16:05;;;;;;;;;;;;;;;;;;4916797;29;19919;-80
2022/05/04 13:18:31;;;;;;;;;;;;;;;;;;4916651;29;19919;-78
2022/05/04 13:20:56;;;;;;;;;;;;;;;;;;4916683;29;19919;-79
2022/05/04 13:23:21;;;;;;;;;;;;;;;;;;4907112;29;19923;-81
2022/05/04 13:25:47;;;;;;;;;;;;;;;;;;4897823;29;20003;-81
2022/05/04 13:28:12;;;;;;;;;;;;;;;;;;4897665;29;19927;-80
2022/05/04 13:30:38;;;;;;;;;;;;;;;;;;4897799;29;19971;-80
2022/05/04 13:33:04;;;;;;;;;;;;;;;;;;4897845;29;20064;-84
2022/05/04 13:35:30;;;;;;;;;;;;;;;;;;4897769;29;19936;-82
2022/05/04 13:37:56;;;;;;;;;;;;;;;;;;4896479;29;19927;-80
2022/05/04 13:40:21;;;;;;;;;;;;;;;;;;4899304;29;19998;-80
2022/05/04 13:42:47;;;;;;;;;;;;;;;;;;4904889;29;20287;-80
2022/05/04 13:45:12;;;;;;;;;;;;;;;;;;4898120;29;19934;-79
2022/05/04 13:47:38;;;;;;;;;;;;;;;;;;4897738;29;19991;-80
2022/05/04 13:50:04;;;;;;;;;;;;;;;;;;4898030;29;19926;-88
2022/05/04 13:55:13;;;;;;;;;;;;;;;;;;4898383;29;19926;-79
2022/05/04 13:57:41;;;;;;;;;;;;;;;;;;4896846;29;20361;-81
2022/05/04 14:00:07;;;;;;;;;;;;;;;;;;4898056;29;19923;-79
2022/05/04 14:02:33;;;;;;;;;;;;;;;;;;4896834;29;19974;-79
2022/05/04 14:04:58;;;;;;;;;;;;;;;;;;4897780;29;19966;-87
2022/05/04 14:07:24;;;;;;;;;;;;;;;;;;4896379;29;19955;-86
2022/05/04 14:09:49;;;;;;;;;;;;;;;;;;4899953;29;19982;-79
2022/05/04 14:12:15;;;;;;;;;;;;;;;;;;4897832;29;20325;-89
2022/05/04 14:17:24;;;;;;;;;;;;;;;;;;4901299;29;20015;-91
2022/05/04 14:19:50;;;;;;;;;;;;;;;;;;4901533;29;19963;-79
2022/05/04 14:22:15;;;;;;;;;;;;;;;;;;4900367;29;19987;-83
2022/05/04 14:24:41;;;;;;;;;;;;;;;;;;4899995;29;19926;-81
2022/05/04 14:27:06;;;;;;;;;;;;;;;;;;4901151;29;19951;-79
2022/05/04 14:29:32;;;;;;;;;;;;;;;;;;4901114;29;19928;-82
2022/05/04 14:31:58;;;;;;;;;;;;;;;;;;4901030;29;19923;-79
2022/05/04 14:34:23;;;;;;;;;;;;;;;;;;4900851;29;19920;-78
2022/05/04 14:36:49;;;;;;;;;;;;;;;;;;4899576;29;20071;-80
2022/05/04 14:39:14;;;;;;;;;;;;;;;;;;4900796;29;20022;-80
2022/05/04 14:41:40;;;;;;;;;;;;;;;;;;4899468;29;20404;-79
2022/05/04 14:44:05;;;;;;;;;;;;;;;;;;4900421;29;19923;-79
2022/05/04 14:46:30;;;;;;;;;;;;;;;;;;4900342;29;20018;-79
2022/05/04 14:48:56;;;;;;;;;;;;;;;;;;4900598;29;19946;-78
2022/05/04 14:51:21;;;;;;;;;;;;;;;;;;4900449;29;20006;-79
2022/05/04 14:53:50;;;;;;;;;;;;;;;;;;4900449;29;19920;-78
2022/05/04 14:56:17;;;;;;;;;;;;;;;;;;4899228;29;20296;-79
2022/05/04 14:58:42;;;;;;;;;;;;;;;;;;4900325;29;19927;-78
2022/05/04 15:01:08;;;;;;;;;;;;;;;;;;4900057;29;19983;-79
2022/05/04 15:06:17;;;;;;;;;;;;;;;;;;4900172;29;19926;-78
2022/05/04 15:08:42;;;;;;;;;;;;;;;;;;4899880;29;19923;-81
2022/05/04 15:11:08;;;;;;;;;;;;;;;;;;4900044;29;19919;-77
2022/05/04 15:13:33;;;;;;;;;;;;;;;;;;4900208;29;19927;-76
2022/05/04 15:15:59;;;;;;;;;;;;;;;;;;4898797;29;19925;-76
2022/05/04 15:18:25;;;;;;;;;;;;;;;;;;4899897;29;20013;-77
2022/05/04 15:20:50;;;;;;;;;;;;;;;;;;4899875;29;19923;-78
2022/05/04 15:23:16;;;;;;;;;;;;;;;;;;4899868;29;19931;-77
2022/05/04 15:25:42;;;;;;;;;;;;;;;;;;4898504;29;19933;-76
2022/05/04 15:28:07;;;;;;;;;;;;;;;;;;4899694;29;19967;-77
2022/05/04 15:30:35;;;;;;;;;;;;;;;;;;4899649;29;19983;-77
2022/05/04 15:33:01;;;;;;;;;;;;;;;;;;4899785;29;19919;-78
2022/05/04 15:35:27;;;;;;;;;;;;;;;;;;4899669;29;19927;-76
2022/05/04 15:37:53;;;;;;;;;;;;;;;;;;4900319;29;20022;-78
2022/05/04 15:40:18;;;;;;;;;;;;;;;;;;4898391;29;19983;-77
2022/05/04 15:42:43;;;;;;;;;;;;;;;;;;4899241;29;19938;-78
2022/05/04 15:45:10;;;;;;;;;;;;;;;;;;4898245;29;19919;-80
2022/05/04 15:47:36;;;;;;;;;;;;;;;;;;4899236;29;19942;-77
2022/05/04 15:50:02;;;;;;;;;;;;;;;;;;4898321;29;20364;-76
2022/05/04 15:52:27;;;;;;;;;;;;;;;;;;4899332;29;20365;-80
2022/05/04 15:54:53;;;;;;;;;;;;;;;;;;4899393;29;20009;-83
2022/05/04 15:57:19;;;;;;;;;;;;;;;;;;4898974;29;19919;-77
2022/05/04 15:59:44;;;;;;;;;;;;;;;;;;4899271;29;19967;-87
2022/05/04 16:02:09;;;;;;;;;;;;;;;;;;4897894;29;19948;-79
2022/05/04 16:04:35;;;;;;;;;;;;;;;;;;4897849;29;19919;-81
2022/05/04 16:07:00;;;;;;;;;;;;;;;;;;4897906;29;19948;-84
2022/05/04 16:09:26;;;;;;;;;;;;;;;;;;4899377;29;20006;-78
2022/05/04 16:11:52;;;;;;;;;;;;;;;;;;4898943;29;20018;-78
2022/05/04 16:14:17;;;;;;;;;;;;;;;;;;4897710;29;19926;-78
2022/05/04 16:22:10;;;;;;;;;;;;;;;;;;4898974;29;19990;-88
2022/05/04 16:24:36;;;;;;;;;;;;;;;;;;4898526;29;20372;-78
2022/05/04 16:27:02;;;;;;;;;;;;;;;;;;4898523;29;20023;-77
2022/05/04 16:29:28;;;;;;;;;;;;;;;;;;4898962;29;19959;-79
2022/05/04 16:31:54;;;;;;;;;;;;;;;;;;4898642;29;20497;-78
2022/05/04 16:34:19;;;;;;;;;;;;;;;;;;4898892;29;19920;-77
2022/05/04 16:36:45;;;;;;;;;;;;;;;;;;4910808;29;19967;-82
2022/05/04 16:39:10;;;;;;;;;;;;;;;;;;4915912;29;19927;-81
2022/05/04 16:41:36;;;;;;;;;;;;;;;;;;4917170;29;19923;-78
2022/05/04 16:44:02;;;;;;;;;;;;;;;;;;4917122;29;19930;-78
2022/05/04 16:46:27;;;;;;;;;;;;;;;;;;4917142;29;20447;-77
2022/05/04 16:48:53;;;;;;;;;;;;;;;;;;4917053;29;19927;-78
2022/05/04 16:51:20;;;;;;;;;;;;;;;;;;4917154;29;19919;-78
2022/05/04 16:53:46;;;;;;;;;;;;;;;;;;4917177;29;19926;-81
2022/05/04 16:56:11;;;;;;;;;;;;;;;;;;4916927;29;19968;-79
2022/05/04 16:58:37;;;;;;;;;;;;;;;;;;4916965;29;20375;-80
2022/05/04 17:01:03;;;;;;;;;;;;;;;;;;4915469;29;19927;-80
2022/05/04 17:03:28;;;;;;;;;;;;;;;;;;4915615;29;19919;-84
2022/05/04 17:05:54;;;;;;;;;;;;;;;;;;4917032;29;19926;-78
2022/05/04 17:08:19;;;;;;;;;;;;;;;;;;4916865;29;20353;-85
2022/05/04 17:10:46;;;;;;;;;;;;;;;;;;4915603;29;19929;-83
2022/05/04 17:13:11;;;;;;;;;;;;;;;;;;4917059;29;19937;-88
2022/05/04 17:15:37;;;;;;;;;;;;;;;;;;4917061;29;20447;-81
2022/05/04 17:18:02;;;;;;;;;;;;;;;;;;4917001;29;19919;-87
2022/05/04 17:20:29;;;;;;;;;;;;;;;;;;4915776;29;20336;-87
2022/05/04 17:22:54;;;;;;;;;;;;;;;;;;4917159;29;19930;-80
2022/05/04 17:25:20;;;;;;;;;;;;;;;;;;4916846;29;19915;-81
2022/05/04 17:27:45;;;;;;;;;;;;;;;;;;4918420;29;19919;-76
2022/05/04 17:30:11;;;;;;;;;;;;;;;;;;4915713;29;19923;-78
2022/05/04 17:38:05;;;;;;;;;;;;;;;;;;4910174;29;19930;-84
2022/05/04 17:40:31;;;;;;;;;;;;;;;;;;4908650;29;19923;-85
2022/05/04 17:42:56;;;;;;;;;;;;;;;;;;4910070;29;20022;-90
2022/05/04 17:45:22;;;;;;;;;;;;;;;;;;4912277;29;19978;-85
2022/05/04 17:47:47;;;;;;;;;;;;;;;;;;4910995;29;19920;-83
2022/05/04 17:50:13;;;;;;;;;;;;;;;;;;4911793;29;19987;-81
2022/05/04 17:52:38;;;;;;;;;;;;;;;;;;4913939;29;20009;-78
2022/05/04 17:55:05;;;;;;;;;;;;;;;;;;4915802;29;20298;-81
2022/05/04 17:57:31;;;;;;;;;;;;;;;;;;4914172;29;19969;-90